Destinations Bordeaux-Mérignac Airport

Bordeaux-Mérignac Airport (LFBD / BOD)

Flights to Bordeaux-Mérignac Airport

Flight number From ETE Dispatch
SPY-2258 EGFF Cardiff International Airport 01:45
SPY-2286 EGFF Cardiff International Airport 01:45

Flights from Bordeaux-Mérignac Airport

Flight number To ETE Dispatch
SPY-2259 EGFF Cardiff International Airport 01:45
SPY-2287 EGFF Cardiff International Airport 01:45
About

Bordeaux-Mérignac Airport facts

Bordeaux-Mérignac Airport is located in Bordeaux at an elevation of 49.4 meters or 162 feet.

Currently, Speedy Airlines serves 4 flights to and from Bordeaux-Mérignac Airport.

Detailed airport info

Route map

Weather

Current weather

METAR

METAR

Metar data retrieved Sunday, 21 July 2024 at 19:55 UTC

LFBD 211930Z AUTO 30007KT 270V330 9999 OVC025 19/14 Q1020 NOSIG
Wind Temperature
7 kt 19c